Granollers, Spain
Current Conditions -  °F | °C
As of 4:00 AM on Wednesday 26 Nov 2014 (Local Time) from LEBL Reporting Station
Few Clouds Few Clouds  
Wind Chill: 59°   Ceiling: Unl
Heat Index: 59°   Visibility: 5mi
Dew Point: 57°   Wind: 2mph
Humidity: 94%   Direction: 350°N
Pressure: 29.91"   Gusts: NA
Location:  41.61°N, 2.29°E
Report Text: LEBL 260300Z 35002KT 8000 FEW016 15/14 Q1013 NOSIG
Loading
Personal Weather Stations






























Interactive Weather Map New forecast layout! Learn more

10-Day Weather Forecast

Advertisements
Track Severe Weather on mobile